Time;durP1;ratioP1;P1;durP2;ratioP2;P2;SDS_P1;SDS_P2;PMS_P1;PMS_P2;Temp;Humidity;BMP_temperature;BMP_pressure;BME280_temperature;BME280_humidity;BME280_pressure;Samples;Min_cycle;Max_cycle;Signal;HPM_P1;HPM_P2
2022/08/03 00:01:42;;;;;;;3.10;0.82;;;24.00;99.90;;;;;;5054460;28;20566;-82
2022/08/03 00:04:09;;;;;;;1.55;0.70;;;23.90;99.90;;;;;;5036168;28;20185;-82
2022/08/03 00:06:35;;;;;;;5.75;0.80;;;23.90;99.90;;;;;;5054251;28;20274;-83
2022/08/03 00:09:01;;;;;;;3.42;0.90;;;23.90;99.90;;;;;;5035965;28;20218;-83
2022/08/03 00:11:27;;;;;;;5.57;1.08;;;23.90;99.90;;;;;;5035896;28;20589;-83
2022/08/03 00:13:52;;;;;;;1.38;0.80;;;23.90;99.90;;;;;;5036288;28;20163;-83
2022/08/03 00:16:18;;;;;;;7.60;1.33;;;23.90;99.90;;;;;;5035892;28;20214;-83
2022/08/03 00:18:44;;;;;;;6.32;1.05;;;23.80;99.90;;;;;;5053604;28;20221;-83
2022/08/03 00:21:10;;;;;;;4.38;0.82;;;23.70;99.90;;;;;;5053635;28;20243;-83
2022/08/03 00:23:35;;;;;;;12.35;0.90;;;23.60;99.90;;;;;;5035912;28;20167;-83
2022/08/03 00:26:01;;;;;;;2.25;0.88;;;23.50;99.90;;;;;;5053663;28;20174;-82
2022/08/03 00:28:28;;;;;;;4.05;0.90;;;23.60;99.90;;;;;;5035918;28;20254;-83
2022/08/03 00:30:54;;;;;;;3.67;1.23;;;23.60;99.90;;;;;;5035870;28;20190;-83
2022/08/03 00:33:22;;;;;;;2.25;1.42;;;23.50;99.90;;;;;;5035770;28;20167;-82
2022/08/03 00:35:47;;;;;;;5.80;1.40;;;23.50;99.90;;;;;;5053392;28;20203;-82
2022/08/03 00:38:13;;;;;;;17.80;1.45;;;23.40;99.90;;;;;;5053419;28;20530;-82
2022/08/03 00:40:39;;;;;;;6.13;1.35;;;23.40;99.90;;;;;;5035650;28;20190;-82
2022/08/03 00:43:06;;;;;;;2.03;0.82;;;23.50;99.90;;;;;;5053276;28;20656;-83
2022/08/03 00:45:40;;;;;;;16.30;1.00;;;23.50;99.90;;;;;;5035354;28;20705;-83
2022/08/03 00:48:08;;;;;;;6.28;1.35;;;23.30;99.90;;;;;;5053504;28;20163;-83
2022/08/03 00:50:38;;;;;;;2.72;1.02;;;23.30;99.90;;;;;;5035269;28;20219;-83
2022/08/03 00:53:04;;;;;;;8.77;0.93;;;23.30;99.90;;;;;;5053016;28;20160;-82
2022/08/03 00:55:30;;;;;;;2.97;1.05;;;23.30;99.90;;;;;;5035285;28;20211;-83
2022/08/03 00:57:58;;;;;;;3.38;1.35;;;23.30;99.90;;;;;;5035409;28;20163;-83
2022/08/03 01:00:25;;;;;;;12.75;0.88;;;23.30;99.90;;;;;;5035140;28;20195;-83
2022/08/03 01:02:52;;;;;;;5.93;1.00;;;23.30;99.90;;;;;;5035512;28;20265;-83
2022/08/03 01:05:19;;;;;;;4.82;1.10;;;23.30;99.90;;;;;;5035091;28;20178;-83
2022/08/03 01:08:13;;;;;;;6.03;0.88;;;23.30;99.90;;;;;;5040321;28;20183;-84
2022/08/03 01:10:53;;;;;;;3.92;1.35;;;23.30;99.90;;;;;;5037450;28;20222;-82
2022/08/03 01:13:56;;;;;;;7.32;1.30;;;23.20;99.90;;;;;;5038718;28;20175;-82
2022/08/03 01:16:39;;;;;;;6.65;0.82;;;23.10;99.90;;;;;;5038506;28;20217;-83
2022/08/03 01:19:29;;;;;;;5.88;1.55;;;23.00;99.90;;;;;;5038128;28;20286;-83
2022/08/03 01:22:16;;;;;;;7.28;1.10;;;22.80;99.90;;;;;;5055552;28;20250;-83
2022/08/03 01:24:57;;;;;;;2.95;1.02;;;22.70;99.90;;;;;;5055616;28;20167;-83
2022/08/03 01:27:50;;;;;;;3.70;1.05;;;22.70;99.90;;;;;;5037674;28;20179;-83
2022/08/03 01:30:16;;;;;;;6.85;1.30;;;22.60;99.90;;;;;;5042324;28;20217;-84
2022/08/03 01:33:04;;;;;;;3.60;0.93;;;22.70;99.90;;;;;;5049115;28;20159;-82
2022/08/03 01:35:47;;;;;;;10.55;1.42;;;22.70;99.90;;;;;;5047420;28;20195;-83
2022/08/03 01:38:21;;;;;;;7.82;1.38;;;22.60;99.90;;;;;;5055581;28;20170;-84
2022/08/03 01:40:47;;;;;;;5.63;1.02;;;22.60;99.90;;;;;;5021071;28;20218;-83
2022/08/03 01:43:17;;;;;;;10.50;1.77;;;22.60;99.90;;;;;;5039951;28;20170;-83
2022/08/03 01:45:43;;;;;;;18.42;1.52;;;22.50;99.90;;;;;;5037420;28;20167;-83
2022/08/03 01:48:11;;;;;;;9.10;1.10;;;22.50;99.90;;;;;;5037608;28;20167;-82
2022/08/03 01:50:37;;;;;;;3.28;1.00;;;22.50;99.90;;;;;;5054997;28;20194;-83
2022/08/03 01:53:04;;;;;;;6.10;1.30;;;22.50;99.90;;;;;;5037038;28;20165;-83
2022/08/03 01:55:32;;;;;;;7.93;1.15;;;22.60;99.90;;;;;;5054598;28;20203;-83
2022/08/03 01:58:01;;;;;;;6.85;1.27;;;22.60;99.90;;;;;;5036819;28;20204;-83
2022/08/03 02:00:27;;;;;;;4.05;1.05;;;22.60;99.90;;;;;;5054643;28;20245;-82
2022/08/03 02:02:54;;;;;;;8.70;0.85;;;22.60;99.90;;;;;;5037505;28;20171;-83
2022/08/03 02:05:21;;;;;;;4.70;1.15;;;22.70;99.90;;;;;;5037858;28;20171;-83
2022/08/03 02:07:47;;;;;;;9.80;1.60;;;22.80;99.90;;;;;;5055140;28;20177;-82
2022/08/03 02:10:18;;;;;;;6.53;1.08;;;22.60;99.90;;;;;;5036564;28;20187;-83
2022/08/03 02:12:45;;;;;;;5.72;1.17;;;22.50;99.90;;;;;;5036652;28;20164;-83
2022/08/03 02:15:14;;;;;;;5.82;1.30;;;22.50;99.90;;;;;;5036986;28;20643;-82
2022/08/03 02:17:41;;;;;;;4.65;0.98;;;22.60;99.90;;;;;;5037661;28;20262;-82
2022/08/03 02:20:11;;;;;;;3.55;1.15;;;22.50;99.90;;;;;;5037402;28;20189;-82
2022/08/03 02:22:41;;;;;;;10.20;1.02;;;22.40;99.90;;;;;;5058991;28;20171;-83
2022/08/03 02:25:09;;;;;;;3.42;0.93;;;22.30;99.90;;;;;;5040424;28;20163;-83
2022/08/03 02:27:36;;;;;;;5.82;1.58;;;22.30;99.90;;;;;;5024276;28;20175;-82
2022/08/03 02:30:06;;;;;;;2.25;1.13;;;22.30;99.90;;;;;;5058030;28;20560;-83
2022/08/03 02:32:36;;;;;;;5.20;1.25;;;22.30;99.90;;;;;;5024478;28;20274;-82
2022/08/03 02:35:04;;;;;;;3.92;0.85;;;22.50;99.90;;;;;;5056128;28;20151;-83
2022/08/03 02:37:39;;;;;;;11.57;1.55;;;22.40;99.90;;;;;;5055477;28;20171;-82
2022/08/03 02:40:08;;;;;;;4.13;1.20;;;22.40;99.90;;;;;;5055396;28;21262;-83
2022/08/03 02:42:35;;;;;;;4.93;1.00;;;22.40;99.90;;;;;;5037320;28;20657;-82
2022/08/03 02:45:06;;;;;;;7.03;1.10;;;22.30;99.90;;;;;;5055067;28;20183;-82
2022/08/03 02:47:35;;;;;;;8.77;0.88;;;22.40;99.90;;;;;;5054965;28;20580;-83
2022/08/03 02:50:02;;;;;;;14.23;1.35;;;22.40;99.90;;;;;;5036878;28;20191;-83
2022/08/03 02:52:29;;;;;;;6.85;1.55;;;22.40;99.90;;;;;;5054936;28;20170;-83
2022/08/03 02:55:00;;;;;;;3.72;1.13;;;22.30;99.90;;;;;;5054953;28;20743;-83
2022/08/03 02:57:28;;;;;;;4.57;1.33;;;22.40;99.90;;;;;;5036765;28;20219;-83
2022/08/03 02:59:56;;;;;;;3.83;1.10;;;22.20;99.90;;;;;;5036877;28;20212;-82
2022/08/03 03:02:24;;;;;;;10.38;1.35;;;22.10;99.90;;;;;;5037025;28;20524;-82
2022/08/03 03:04:51;;;;;;;3.92;1.00;;;22.00;99.90;;;;;;5036753;28;20167;-82
2022/08/03 03:07:19;;;;;;;11.23;1.35;;;22.00;99.90;;;;;;5036847;28;20175;-82
2022/08/03 03:09:45;;;;;;;6.60;1.23;;;22.20;99.90;;;;;;5054511;28;20636;-82
2022/08/03 03:12:12;;;;;;;8.55;1.30;;;22.10;99.90;;;;;;5054977;28;20621;-82
2022/08/03 03:14:38;;;;;;;22.35;1.77;;;21.80;99.90;;;;;;5054223;28;20258;-83
2022/08/03 03:17:06;;;;;;;4.82;1.55;;;21.80;99.90;;;;;;5036614;28;20286;-83
2022/08/03 03:19:33;;;;;;;1.42;0.82;;;21.70;99.90;;;;;;5036598;28;20190;-83
2022/08/03 03:22:01;;;;;;;1.73;0.90;;;21.80;99.90;;;;;;5036943;28;20179;-82
2022/08/03 03:24:28;;;;;;;4.55;1.52;;;21.70;99.90;;;;;;5036585;28;20171;-83
2022/08/03 03:26:55;;;;;;;5.00;1.20;;;21.80;99.90;;;;;;5036456;28;20167;-82
2022/08/03 03:29:21;;;;;;;7.65;1.30;;;21.90;99.90;;;;;;5036794;28;20218;-83
2022/08/03 03:31:48;;;;;;;1.77;1.00;;;22.10;99.90;;;;;;5055367;28;20194;-83
2022/08/03 03:34:14;;;;;;;7.43;1.48;;;21.90;99.90;;;;;;5036683;28;20178;-83
2022/08/03 03:36:39;;;;;;;4.93;1.83;;;21.80;99.90;;;;;;5036714;28;20686;-82
2022/08/03 03:39:05;;;;;;;3.20;1.00;;;21.60;99.90;;;;;;5054438;28;20245;-82
2022/08/03 03:41:31;;;;;;;4.13;1.30;;;21.50;99.90;;;;;;5036966;28;20164;-83
2022/08/03 03:43:58;;;;;;;9.35;1.77;;;21.40;99.90;;;;;;5037522;28;20620;-83
2022/08/03 03:46:23;;;;;;;2.95;1.17;;;21.00;99.90;;;;;;5037606;28;20180;-82
2022/08/03 03:48:49;;;;;;;7.10;1.20;;;21.10;99.90;;;;;;5054972;28;20194;-82
2022/08/03 03:51:15;;;;;;;6.88;1.83;;;21.20;99.90;;;;;;5058304;28;20256;-83
2022/08/03 03:53:54;;;;;;;4.40;1.17;;;21.20;99.90;;;;;;5037807;28;20171;-83
2022/08/03 03:56:19;;;;;;;6.47;1.40;;;21.30;99.90;;;;;;5057988;28;20210;-84
2022/08/03 03:58:46;;;;;;;7.82;2.38;;;21.40;99.90;;;;;;5046164;28;20167;-84
2022/08/03 04:01:13;;;;;;;6.28;1.30;;;21.40;99.90;;;;;;5076845;28;20223;-83
2022/08/03 04:03:38;;;;;;;4.35;1.48;;;21.50;99.90;;;;;;5056285;28;20186;-83
2022/08/03 04:11:53;;;;;;;4.65;1.40;;;21.20;99.90;;;;;;5057264;28;20182;-84
2022/08/03 04:14:25;;;;;;;2.58;1.23;;;21.20;99.90;;;;;;5055781;28;20183;-83
2022/08/03 04:16:58;;;;;;;7.45;1.40;;;21.20;99.90;;;;;;5057045;28;20195;-82
2022/08/03 04:19:29;;;;;;;12.40;1.20;;;21.20;99.90;;;;;;5042410;28;20199;-83
2022/08/03 04:21:59;;;;;;;12.18;1.30;;;21.20;99.90;;;;;;5057127;28;20689;-82
2022/08/03 04:24:29;;;;;;;12.80;1.60;;;21.10;99.90;;;;;;5040847;28;20217;-82
2022/08/03 04:26:57;;;;;;;2.45;1.52;;;21.20;99.90;;;;;;5038850;28;20167;-82
2022/08/03 04:29:24;;;;;;;6.72;1.13;;;21.30;99.90;;;;;;5058843;28;20651;-82
2022/08/03 04:31:53;;;;;;;5.72;1.85;;;21.30;99.90;;;;;;5056281;28;20254;-83
2022/08/03 04:34:18;;;;;;;10.65;1.75;;;21.30;99.90;;;;;;5057975;28;20193;-83
2022/08/03 04:36:48;;;;;;;9.10;1.23;;;21.30;99.90;;;;;;5039614;28;20215;-84
2022/08/03 04:39:21;;;;;;;2.25;1.10;;;21.40;99.90;;;;;;5038985;28;20198;-83
2022/08/03 04:41:48;;;;;;;5.18;1.67;;;21.50;99.90;;;;;;5037850;28;20175;-82
2022/08/03 04:44:14;;;;;;;6.82;1.85;;;21.40;99.90;;;;;;5055368;28;20171;-83
2022/08/03 04:46:43;;;;;;;3.88;1.27;;;21.40;99.90;;;;;;5038025;28;20262;-83
2022/08/03 04:49:09;;;;;;;5.50;1.42;;;21.60;99.90;;;;;;5036921;28;20598;-83
2022/08/03 04:51:46;;;;;;;9.30;1.10;;;21.60;99.90;;;;;;5040519;28;20171;-82
2022/08/03 04:54:13;;;;;;;8.45;1.65;;;21.60;99.90;;;;;;5038651;28;20173;-83
2022/08/03 04:56:44;;;;;;;3.70;1.23;;;21.70;99.90;;;;;;5038859;28;20235;-83
2022/08/03 04:59:10;;;;;;;10.40;1.45;;;21.90;99.90;;;;;;5056118;28;20196;-83
2022/08/03 05:01:38;;;;;;;10.85;1.80;;;21.90;99.90;;;;;;5054650;28;20163;-83
2022/08/03 05:04:04;;;;;;;9.77;1.65;;;21.90;99.90;;;;;;5036506;28;20643;-82
2022/08/03 05:06:29;;;;;;;10.30;1.50;;;22.00;99.90;;;;;;5037720;28;20175;-83
2022/08/03 05:08:55;;;;;;;5.30;1.40;;;22.00;99.90;;;;;;5037280;28;20592;-83
2022/08/03 05:11:20;;;;;;;10.18;1.60;;;21.90;99.90;;;;;;5055932;28;20639;-82
2022/08/03 05:13:46;;;;;;;6.15;1.15;;;21.90;99.90;;;;;;5054557;28;20178;-83
2022/08/03 05:16:35;;;;;;;9.68;1.80;;;22.00;99.90;;;;;;5042958;28;20194;-84
2022/08/03 05:19:01;;;;;;;12.50;1.83;;;22.20;99.90;;;;;;5024000;28;20219;-83
2022/08/03 05:21:26;;;;;;;2.72;1.30;;;22.20;99.90;;;;;;5039510;28;20214;-83
2022/08/03 05:23:52;;;;;;;11.30;1.85;;;22.20;99.90;;;;;;5054642;28;20217;-82
2022/08/03 05:26:18;;;;;;;9.10;1.33;;;22.10;99.90;;;;;;5039025;28;20193;-83
2022/08/03 05:28:43;;;;;;;6.03;1.13;;;22.10;99.90;;;;;;5037228;28;20172;-82
2022/08/03 05:31:10;;;;;;;7.65;1.50;;;22.00;99.90;;;;;;5055728;28;20197;-82
2022/08/03 05:33:36;;;;;;;10.73;1.58;;;22.10;99.90;;;;;;5037222;28;20677;-81
2022/08/03 05:36:02;;;;;;;15.75;1.55;;;22.40;99.90;;;;;;5061943;28;20195;-84
2022/08/03 05:38:28;;;;;;;5.45;1.17;;;22.50;99.90;;;;;;5036345;28;20663;-83
2022/08/03 05:40:53;;;;;;;9.23;1.42;;;22.60;99.90;;;;;;5034549;28;20550;-83
2022/08/03 05:43:19;;;;;;;8.90;1.73;;;22.60;99.90;;;;;;5055880;28;20182;-82
2022/08/03 05:45:44;;;;;;;6.90;1.23;;;22.90;99.90;;;;;;5038535;28;20166;-83
2022/08/03 05:48:10;;;;;;;15.45;1.50;;;23.00;99.90;;;;;;5036555;28;20577;-83
2022/08/03 05:50:35;;;;;;;4.90;1.30;;;23.00;99.90;;;;;;5036344;28;20632;-83
2022/08/03 05:53:01;;;;;;;8.80;1.30;;;23.20;99.90;;;;;;5039166;28;20178;-83
2022/08/03 05:55:27;;;;;;;4.70;1.50;;;23.30;99.90;;;;;;5052257;28;20160;-84
2022/08/03 05:57:53;;;;;;;6.25;0.90;;;23.40;99.90;;;;;;5074135;28;20167;-83
2022/08/03 06:00:19;;;;;;;5.45;1.13;;;23.10;99.90;;;;;;5056929;28;20178;-83
2022/08/03 06:02:45;;;;;;;18.08;1.83;;;23.00;99.90;;;;;;5057182;28;20167;-86
2022/08/03 06:05:10;;;;;;;9.10;1.92;;;23.00;99.90;;;;;;5055861;28;20233;-84
2022/08/03 06:07:36;;;;;;;13.50;1.42;;;23.20;99.90;;;;;;5052880;28;20163;-84
2022/08/03 06:10:03;;;;;;;7.55;1.95;;;23.30;99.90;;;;;;5057455;28;20179;-83
2022/08/03 06:12:29;;;;;;;13.68;1.60;;;23.40;99.90;;;;;;5058691;28;20166;-82
2022/08/03 06:14:55;;;;;;;3.85;1.30;;;23.30;99.90;;;;;;5073332;28;20171;-83
2022/08/03 06:17:21;;;;;;;5.10;1.35;;;23.30;99.90;;;;;;5074057;28;20203;-83
2022/08/03 06:19:46;;;;;;;8.07;1.63;;;23.30;99.90;;;;;;5053290;28;20190;-84
2022/08/03 06:22:12;;;;;;;6.90;1.45;;;23.50;99.90;;;;;;5073508;28;20225;-83
2022/08/03 06:24:37;;;;;;;6.90;1.40;;;23.70;99.90;;;;;;5069451;28;20167;-83
2022/08/03 06:27:03;;;;;;;6.50;1.13;;;23.60;99.90;;;;;;5077756;28;20217;-85
2022/08/03 06:29:29;;;;;;;10.15;1.40;;;23.40;99.90;;;;;;5062724;28;20183;-82
2022/08/03 06:31:55;;;;;;;12.60;1.23;;;23.40;99.90;;;;;;5057549;28;20162;-82
2022/08/03 06:34:20;;;;;;;1.80;0.88;;;23.50;99.90;;;;;;5058574;28;20308;-83
2022/08/03 06:36:47;;;;;;;7.28;1.45;;;23.60;99.90;;;;;;5056241;28;20199;-83
2022/08/03 06:39:13;;;;;;;7.15;1.38;;;23.60;99.90;;;;;;5039178;28;20610;-84
2022/08/03 06:41:38;;;;;;;5.75;1.00;;;23.60;99.90;;;;;;5038184;28;20258;-83
2022/08/03 06:44:04;;;;;;;2.08;1.27;;;23.60;99.90;;;;;;5037891;28;20175;-84
2022/08/03 06:46:30;;;;;;;3.28;1.10;;;23.70;99.90;;;;;;5037908;28;20642;-84
2022/08/03 06:48:55;;;;;;;4.82;0.93;;;23.80;99.90;;;;;;5037980;28;20187;-85
2022/08/03 06:51:22;;;;;;;10.10;1.08;;;23.80;99.90;;;;;;5055365;28;20220;-82
2022/08/03 06:53:48;;;;;;;22.15;1.77;;;23.90;99.90;;;;;;5037808;28;20258;-83
2022/08/03 06:56:13;;;;;;;5.70;1.08;;;23.80;99.90;;;;;;5037827;28;20302;-83
2022/08/03 06:58:39;;;;;;;8.82;1.50;;;23.90;99.90;;;;;;5037580;28;20171;-83
2022/08/03 07:01:04;;;;;;;1.75;0.77;;;24.00;99.90;;;;;;5037474;28;20593;-83
2022/08/03 07:03:30;;;;;;;7.57;1.13;;;24.20;99.90;;;;;;5055433;28;20163;-83
2022/08/03 07:05:56;;;;;;;4.88;1.17;;;24.30;99.90;;;;;;5055150;28;20193;-83
2022/08/03 07:08:23;;;;;;;9.20;1.50;;;24.50;99.90;;;;;;5055343;28;20251;-83
2022/08/03 07:10:48;;;;;;;4.28;1.15;;;24.60;99.90;;;;;;5055441;28;20183;-84
2022/08/03 07:13:14;;;;;;;8.10;1.20;;;24.80;99.90;;;;;;5055585;28;20321;-85
2022/08/03 07:15:40;;;;;;;10.73;1.33;;;25.20;99.90;;;;;;5036991;28;20195;-83
2022/08/03 07:18:05;;;;;;;2.72;0.95;;;26.00;99.90;;;;;;5034382;28;20179;-85
2022/08/03 07:20:32;;;;;;;9.38;1.30;;;26.80;99.90;;;;;;5036346;28;20180;-84
2022/08/03 07:22:57;;;;;;;2.17;0.80;;;27.80;99.90;;;;;;5037031;28;20229;-84
2022/08/03 07:25:24;;;;;;;13.15;1.10;;;29.20;99.90;;;;;;5054539;28;20167;-88
2022/08/03 07:27:49;;;;;;;7.47;1.00;;;30.00;99.90;;;;;;5038622;28;20239;-88
2022/08/03 07:30:15;;;;;;;5.65;0.95;;;30.30;99.90;;;;;;5037659;28;20293;-88
2022/08/03 07:32:43;;;;;;;7.63;0.55;;;30.10;99.90;;;;;;5039561;28;20167;-85
2022/08/03 07:35:09;;;;;;;1.80;0.65;;;30.90;99.90;;;;;;5055990;28;20221;-86
2022/08/03 07:37:36;;;;;;;2.75;0.60;;;31.00;99.90;;;;;;5037799;28;20199;-86
2022/08/03 07:40:03;;;;;;;12.27;0.82;;;30.50;99.90;;;;;;5038550;28;20650;-88
2022/08/03 07:42:30;;;;;;;10.95;1.60;;;31.10;99.90;;;;;;5055151;28;20225;-85
2022/08/03 07:44:56;;;;;;;3.17;1.30;;;30.20;99.90;;;;;;5038619;28;20212;-86
2022/08/03 07:47:25;;;;;;;5.07;1.27;;;29.90;99.90;;;;;;5063644;28;20152;-88
2022/08/03 07:49:50;;;;;;;3.45;2.50;;;29.60;99.90;;;;;;5067274;28;20191;-88
2022/08/03 07:55:01;;;;;;;2.88;1.23;;;28.70;99.90;;;;;;5064126;28;20335;-86
2022/08/03 07:57:28;;;;;;;6.75;1.58;;;28.10;99.90;;;;;;5062581;28;20203;-86
2022/08/03 07:59:54;;;;;;;6.20;0.95;;;28.00;99.90;;;;;;5065872;28;20535;-88
2022/08/03 08:02:19;;;;;;;6.32;0.93;;;27.80;99.90;;;;;;5038736;28;20197;-87
2022/08/03 08:04:45;;;;;;;11.77;1.00;;;27.80;99.90;;;;;;5037032;28;20159;-87
2022/08/03 08:07:10;;;;;;;8.60;1.20;;;27.90;99.90;;;;;;5037753;28;20237;-88
2022/08/03 08:09:36;;;;;;;3.58;1.13;;;27.50;99.90;;;;;;5040602;28;20325;-86
2022/08/03 08:12:02;;;;;;;7.88;1.00;;;27.30;99.90;;;;;;5040941;28;20172;-86
2022/08/03 08:14:28;;;;;;;11.93;1.48;;;27.30;99.90;;;;;;5055556;28;20229;-87
2022/08/03 08:16:54;;;;;;;5.25;1.00;;;27.40;99.90;;;;;;5037765;28;20215;-86
2022/08/03 08:19:19;;;;;;;7.25;1.02;;;27.40;99.90;;;;;;5035546;28;20217;-87
2022/08/03 08:21:45;;;;;;;2.85;1.02;;;27.50;99.90;;;;;;5054389;28;20198;-87
2022/08/03 08:24:11;;;;;;;6.03;1.40;;;27.30;99.90;;;;;;5036789;28;20202;-87
2022/08/03 08:26:36;;;;;;;5.30;1.15;;;27.30;99.90;;;;;;5054141;28;20217;-87
2022/08/03 08:29:03;;;;;;;5.07;1.58;;;27.50;99.90;;;;;;5036376;28;20179;-88
2022/08/03 08:31:28;;;;;;;3.42;1.08;;;27.60;99.90;;;;;;5036372;28;20678;-87
2022/08/03 08:33:54;;;;;;;3.25;1.23;;;27.70;99.90;;;;;;5036113;28;20163;-87
2022/08/03 08:36:20;;;;;;;9.73;1.55;;;27.60;99.90;;;;;;5035782;28;20213;-84
2022/08/03 08:38:45;;;;;;;9.18;1.08;;;27.60;99.90;;;;;;5053898;28;20159;-86
2022/08/03 08:41:12;;;;;;;15.18;1.35;;;27.80;99.90;;;;;;5054123;28;20228;-86
2022/08/03 08:43:38;;;;;;;4.70;0.93;;;27.90;99.90;;;;;;5036667;28;20199;-86
2022/08/03 08:46:07;;;;;;;16.23;1.52;;;27.90;99.90;;;;;;5036132;28;20171;-86
2022/08/03 08:48:38;;;;;;;14.27;1.52;;;27.90;99.90;;;;;;5044066;28;20246;-85
2022/08/03 08:51:10;;;;;;;5.53;1.20;;;28.10;99.90;;;;;;5057028;28;20167;-84
2022/08/03 08:53:39;;;;;;;3.20;1.17;;;28.10;99.90;;;;;;5076192;28;20174;-86
2022/08/03 08:56:06;;;;;;;9.25;1.33;;;28.20;99.90;;;;;;5057683;28;20230;-87
2022/08/03 08:58:40;;;;;;;9.43;1.45;;;28.30;99.90;;;;;;5039696;28;20186;-86
2022/08/03 09:01:06;;;;;;;6.75;1.15;;;28.50;99.90;;;;;;5041874;28;20617;-89
2022/08/03 09:03:33;;;;;;;5.72;1.42;;;28.60;99.90;;;;;;5058213;28;20206;-87
2022/08/03 09:06:00;;;;;;;9.02;1.00;;;28.70;99.90;;;;;;5037971;28;20173;-89
2022/08/03 09:08:27;;;;;;;8.35;0.93;;;28.60;99.90;;;;;;5037787;28;20643;-87
2022/08/03 09:10:53;;;;;;;5.53;1.40;;;28.40;99.90;;;;;;5038045;28;20281;-89
2022/08/03 09:13:19;;;;;;;13.18;1.13;;;28.30;99.90;;;;;;5037348;28;20639;-87
2022/08/03 09:15:45;;;;;;;3.45;0.90;;;28.40;99.90;;;;;;5038666;28;20202;-89
2022/08/03 09:18:12;;;;;;;10.07;0.90;;;28.60;99.90;;;;;;5060111;28;20234;-87
2022/08/03 09:20:38;;;;;;;6.63;1.40;;;28.60;99.90;;;;;;5036233;28;20548;-86
2022/08/03 09:23:07;;;;;;;13.70;1.52;;;28.60;99.90;;;;;;5038140;28;20197;-88
2022/08/03 09:25:34;;;;;;;15.63;0.95;;;28.70;99.90;;;;;;5038547;28;20244;-84
2022/08/03 09:28:14;;;;;;;4.22;0.80;;;28.80;99.90;;;;;;5039046;28;20178;-86
2022/08/03 09:30:42;;;;;;;5.13;1.10;;;29.00;99.90;;;;;;5037852;28;20301;-87
2022/08/03 09:33:10;;;;;;;4.03;0.93;;;29.10;99.90;;;;;;5037848;28;20167;-86
2022/08/03 09:35:45;;;;;;;12.93;1.33;;;29.30;99.90;;;;;;5036601;28;20166;-85
2022/08/03 09:38:15;;;;;;;4.40;1.10;;;29.30;99.90;;;;;;5037359;28;20162;-84
2022/08/03 09:40:42;;;;;;;5.00;0.95;;;29.50;99.90;;;;;;5053027;28;20658;-84
2022/08/03 09:43:08;;;;;;;5.93;0.90;;;29.40;99.90;;;;;;5018666;28;20175;-85
2022/08/03 09:45:36;;;;;;;4.63;0.95;;;29.40;99.90;;;;;;5035887;28;20167;-86
2022/08/03 09:48:23;;;;;;;7.30;1.20;;;29.70;99.90;;;;;;5036631;28;20167;-86
2022/08/03 09:50:49;;;;;;;11.10;1.58;;;29.80;99.90;;;;;;5036435;28;20524;-86
2022/08/03 09:53:16;;;;;;;5.65;0.95;;;29.80;99.90;;;;;;5036364;28;20178;-85
2022/08/03 09:55:53;;;;;;;2.47;0.85;;;29.90;99.90;;;;;;5036914;28;20205;-86
2022/08/03 09:58:27;;;;;;;5.95;0.85;;;29.90;99.90;;;;;;5037620;28;20186;-86
2022/08/03 10:01:12;;;;;;;1.50;0.80;;;29.80;99.90;;;;;;5048302;28;20213;-86
2022/08/03 10:03:56;;;;;;;6.85;1.05;;;29.90;99.90;;;;;;5056260;28;20158;-88
2022/08/03 10:06:21;;;;;;;5.47;0.77;;;29.90;99.90;;;;;;5040987;28;20181;-86
2022/08/03 10:09:07;;;;;;;7.28;0.80;;;30.10;99.90;;;;;;5040631;28;20174;-84
2022/08/03 10:11:34;;;;;;;1.25;0.70;;;30.20;99.90;;;;;;5036209;28;20171;-85
2022/08/03 10:14:05;;;;;;;2.25;0.70;;;30.10;99.90;;;;;;5023290;28;20189;-85
2022/08/03 10:16:36;;;;;;;8.38;0.90;;;30.10;99.90;;;;;;5063775;28;20206;-87
2022/08/03 10:19:07;;;;;;;6.13;0.57;;;30.10;99.90;;;;;;5042450;28;20632;-88
2022/08/03 10:21:45;;;;;;;10.13;0.70;;;30.20;99.90;;;;;;5026087;28;20269;-86
2022/08/03 10:24:13;;;;;;;3.85;0.70;;;30.20;99.90;;;;;;5043928;28;20692;-86
2022/08/03 10:26:43;;;;;;;16.10;0.63;;;30.20;99.90;;;;;;5040244;28;20167;-84
2022/08/03 10:29:16;;;;;;;4.55;0.55;;;30.20;99.90;;;;;;5057041;28;20638;-85
2022/08/03 10:31:45;;;;;;;0.63;0.40;;;30.20;99.90;;;;;;5052983;28;20186;-85
2022/08/03 10:34:21;;;;;;;3.53;0.50;;;30.20;99.90;;;;;;5058753;28;20155;-85
2022/08/03 10:36:48;;;;;;;4.43;0.63;;;30.40;99.90;;;;;;5038507;28;20228;-85
2022/08/03 10:39:20;;;;;;;4.20;0.75;;;30.30;99.90;;;;;;5055943;28;20211;-86
2022/08/03 10:41:48;;;;;;;3.50;0.98;;;30.30;99.90;;;;;;5039957;28;20163;-85
2022/08/03 10:44:17;;;;;;;3.95;0.73;;;30.50;99.90;;;;;;5048720;28;20174;-86
2022/08/03 10:46:43;;;;;;;3.67;0.95;;;30.50;99.90;;;;;;5059680;28;20242;-86
2022/08/03 10:49:13;;;;;;;3.60;0.77;;;30.70;99.90;;;;;;5061639;28;20195;-86
2022/08/03 10:51:39;;;;;;;3.97;0.70;;;30.60;99.90;;;;;;5045986;28;20185;-86
2022/08/03 10:54:05;;;;;;;2.17;0.85;;;30.50;99.90;;;;;;5046690;28;20811;-85
2022/08/03 10:59:15;;;;;;;6.22;0.77;;;30.80;99.90;;;;;;5070066;28;20197;-85
2022/08/03 11:01:55;;;;;;;3.90;0.82;;;30.70;99.90;;;;;;5042253;28;20685;-86
2022/08/03 11:04:23;;;;;;;5.07;0.60;;;30.80;99.90;;;;;;5038200;28;20221;-91
2022/08/03 11:07:24;;;;;;;1.75;0.65;;;30.70;99.90;;;;;;5055377;28;20257;-85
2022/08/03 11:09:55;;;;;;;2.83;1.70;;;30.60;99.90;;;;;;5039646;28;20181;-86
2022/08/03 11:12:25;;;;;;;1.33;0.82;;;30.50;99.90;;;;;;5057624;28;20169;-86
2022/08/03 11:14:52;;;;;;;8.38;0.80;;;30.70;99.90;;;;;;5075804;28;20159;-85
2022/08/03 11:17:18;;;;;;;1.55;0.75;;;30.80;99.90;;;;;;5046522;28;20198;-91
2022/08/03 11:19:46;;;;;;;1.92;0.70;;;30.60;99.90;;;;;;5059143;28;20193;-91
2022/08/03 11:22:12;;;;;;;1.20;0.70;;;30.60;99.90;;;;;;5045758;28;20265;-87
2022/08/03 11:24:42;;;;;;;3.97;0.82;;;30.70;99.90;;;;;;5039139;28;20561;-88
2022/08/03 11:27:17;;;;;;;2.03;0.43;;;30.90;99.90;;;;;;5039507;28;20182;-90
2022/08/03 11:29:56;;;;;;;3.05;0.70;;;30.80;99.90;;;;;;5038026;28;20204;-88
2022/08/03 11:32:37;;;;;;;4.75;0.47;;;30.80;99.90;;;;;;5038002;28;20172;-88
2022/08/03 11:35:08;;;;;;;2.72;0.60;;;30.70;99.90;;;;;;5055408;28;20232;-93
2022/08/03 11:37:35;;;;;;;0.88;0.52;;;30.50;99.90;;;;;;5037570;28;20297;-90
2022/08/03 11:40:01;;;;;;;3.63;0.70;;;30.70;99.90;;;;;;5055645;28;20187;-87
2022/08/03 11:42:27;;;;;;;4.38;0.52;;;30.90;99.90;;;;;;5037486;28;20619;-87
2022/08/03 11:44:58;;;;;;;4.60;0.70;;;31.10;99.90;;;;;;5037077;28;20175;-84
2022/08/03 11:47:27;;;;;;;5.30;0.68;;;31.20;99.90;;;;;;5037192;28;20533;-84
2022/08/03 11:50:00;;;;;;;0.85;0.65;;;31.20;99.90;;;;;;5036815;28;20788;-86
2022/08/03 11:52:32;;;;;;;4.72;0.68;;;31.30;99.90;;;;;;5054153;28;20588;-83
2022/08/03 11:54:58;;;;;;;5.35;0.57;;;31.10;99.90;;;;;;5060140;28;20236;-87
2022/08/03 11:57:35;;;;;;;12.45;1.17;;;31.10;99.90;;;;;;5039944;28;20738;-86
2022/08/03 12:00:03;;;;;;;1.30;1.00;;;31.30;99.90;;;;;;5040729;28;20347;-87
2022/08/03 12:02:37;;;;;;;5.97;0.85;;;31.20;99.90;;;;;;5043653;28;20171;-86
2022/08/03 12:05:16;;;;;;;3.13;0.65;;;31.40;99.90;;;;;;5054223;28;20175;-86
2022/08/03 12:07:46;;;;;;;2.83;0.40;;;31.40;99.90;;;;;;5044397;28;20178;-87
2022/08/03 12:10:13;;;;;;;3.58;0.80;;;31.40;99.90;;;;;;5055896;28;20258;-86
2022/08/03 12:12:41;;;;;;;1.48;0.50;;;31.40;99.90;;;;;;5039554;28;20607;-87
2022/08/03 12:15:07;;;;;;;4.28;0.50;;;31.50;99.90;;;;;;5045576;28;20197;-87
2022/08/03 12:17:37;;;;;;;4.45;0.52;;;31.40;99.90;;;;;;5060106;28;20201;-86
2022/08/03 12:20:05;;;;;;;0.90;0.50;;;31.40;99.90;;;;;;5038138;28;20194;-86
2022/08/03 12:22:39;;;;;;;8.00;1.00;;;31.40;99.90;;;;;;5036837;28;20545;-89
2022/08/03 12:25:07;;;;;;;2.30;0.77;;;31.60;99.90;;;;;;5037289;28;20619;-89
2022/08/03 12:27:32;;;;;;;4.60;0.63;;;31.80;99.90;;;;;;5037115;28;20165;-90
2022/08/03 12:30:00;;;;;;;1.70;0.70;;;32.10;99.90;;;;;;5037015;28;20214;-87
2022/08/03 12:32:29;;;;;;;6.60;0.73;;;32.00;99.90;;;;;;5036510;28;20536;-89
2022/08/03 12:34:59;;;;;;;7.15;0.60;;;32.10;99.90;;;;;;5037185;28;20158;-90
2022/08/03 12:37:25;;;;;;;3.53;0.60;;;32.10;99.90;;;;;;5037658;28;20283;-90
2022/08/03 12:40:00;;;;;;;3.50;0.40;;;32.10;99.90;;;;;;5036964;28;20190;-89
2022/08/03 12:42:33;;;;;;;2.35;0.70;;;32.20;99.90;;;;;;5037497;28;20170;-88
2022/08/03 12:44:59;;;;;;;4.68;0.50;;;32.30;99.90;;;;;;5036829;28;20175;-88
2022/08/03 12:47:25;;;;;;;3.63;0.80;;;32.30;99.90;;;;;;5037436;28;20217;-87
2022/08/03 12:49:52;;;;;;;5.47;0.70;;;32.30;99.90;;;;;;5037054;28;20193;-88
2022/08/03 12:52:20;;;;;;;6.22;0.73;;;32.20;99.90;;;;;;5036944;28;20155;-88
2022/08/03 12:54:59;;;;;;;3.20;0.65;;;32.20;99.90;;;;;;5036490;28;20189;-87
2022/08/03 12:57:38;;;;;;;2.05;0.65;;;32.40;99.90;;;;;;5036803;28;20202;-87
2022/08/03 13:00:13;;;;;;;4.50;0.77;;;32.40;99.90;;;;;;5054456;28;20205;-87
2022/08/03 13:02:40;;;;;;;3.50;0.50;;;32.60;99.90;;;;;;5037135;28;20188;-88
2022/08/03 13:05:15;;;;;;;2.55;0.52;;;32.80;99.90;;;;;;5040461;28;20170;-87